sensor_id;sensor_type;location;lat;lon;timestamp;pressure;altitude;pressure_sealevel;temperature;humidity
49973;BME280;35865;49.798;10.968;2022-08-24T00:01:44;98425.66;;;17.34;92.15
49973;BME280;35865;49.798;10.968;2022-08-24T00:04:10;98426.56;;;17.24;93.08
49973;BME280;35865;49.798;10.968;2022-08-24T00:06:37;98428.25;;;17.15;94.08
49973;BME280;35865;49.798;10.968;2022-08-24T00:09:03;98427.19;;;17.16;94.96
49973;BME280;35865;49.798;10.968;2022-08-24T00:11:31;98426.47;;;17.05;95.22
49973;BME280;35865;49.798;10.968;2022-08-24T00:13:58;98428.44;;;16.94;96.26
49973;BME280;35865;49.798;10.968;2022-08-24T00:16:25;98431.72;;;16.86;97.27
49973;BME280;35865;49.798;10.968;2022-08-24T00:18:51;98429.69;;;16.72;98.16
49973;BME280;35865;49.798;10.968;2022-08-24T00:21:18;98429.50;;;16.64;99.24
49973;BME280;35865;49.798;10.968;2022-08-24T00:23:44;98431.88;;;16.70;100.00
49973;BME280;35865;49.798;10.968;2022-08-24T00:26:14;98434.59;;;16.65;100.00
49973;BME280;35865;49.798;10.968;2022-08-24T00:28:42;98434.09;;;16.58;100.00
49973;BME280;35865;49.798;10.968;2022-08-24T00:31:09;98425.53;;;16.51;100.00
49973;BME280;35865;49.798;10.968;2022-08-24T00:33:35;98434.44;;;16.41;100.00
49973;BME280;35865;49.798;10.968;2022-08-24T00:36:03;98438.44;;;16.44;100.00
49973;BME280;35865;49.798;10.968;2022-08-24T00:38:30;98432.91;;;16.35;100.00
49973;BME280;35865;49.798;10.968;2022-08-24T00:40:56;98432.09;;;16.29;100.00
49973;BME280;35865;49.798;10.968;2022-08-24T00:43:24;98430.06;;;16.16;100.00
49973;BME280;35865;49.798;10.968;2022-08-24T00:46:13;98433.34;;;16.02;100.00
49973;BME280;35865;49.798;10.968;2022-08-24T00:48:45;98432.59;;;15.92;100.00
49973;BME280;35865;49.798;10.968;2022-08-24T00:51:16;98436.09;;;15.87;100.00
49973;BME280;35865;49.798;10.968;2022-08-24T00:53:46;98445.22;;;15.76;100.00
49973;BME280;35865;49.798;10.968;2022-08-24T00:56:17;98432.69;;;15.71;100.00
49973;BME280;35865;49.798;10.968;2022-08-24T00:58:49;98438.56;;;15.73;100.00
49973;BME280;35865;49.798;10.968;2022-08-24T01:01:18;98441.00;;;15.69;100.00
49973;BME280;35865;49.798;10.968;2022-08-24T01:03:45;98440.50;;;15.62;100.00
49973;BME280;35865;49.798;10.968;2022-08-24T01:06:12;98436.75;;;15.58;100.00
49973;BME280;35865;49.798;10.968;2022-08-24T01:08:39;98441.84;;;15.49;100.00
49973;BME280;35865;49.798;10.968;2022-08-24T01:11:07;98443.75;;;15.44;100.00
49973;BME280;35865;49.798;10.968;2022-08-24T01:13:37;98441.06;;;15.38;100.00
49973;BME280;35865;49.798;10.968;2022-08-24T01:16:06;98438.41;;;15.33;100.00
49973;BME280;35865;49.798;10.968;2022-08-24T01:18:35;98435.97;;;15.32;100.00
49973;BME280;35865;49.798;10.968;2022-08-24T01:21:17;98433.34;;;15.27;100.00
49973;BME280;35865;49.798;10.968;2022-08-24T01:23:48;98439.47;;;15.22;100.00
49973;BME280;35865;49.798;10.968;2022-08-24T01:26:18;98431.22;;;15.18;100.00
49973;BME280;35865;49.798;10.968;2022-08-24T01:28:49;98440.03;;;15.14;100.00
49973;BME280;35865;49.798;10.968;2022-08-24T01:31:18;98438.69;;;15.11;100.00
49973;BME280;35865;49.798;10.968;2022-08-24T01:33:47;98443.78;;;15.08;100.00
49973;BME280;35865;49.798;10.968;2022-08-24T01:36:19;98437.13;;;15.00;100.00
49973;BME280;35865;49.798;10.968;2022-08-24T01:38:49;98447.78;;;15.00;100.00
49973;BME280;35865;49.798;10.968;2022-08-24T01:41:15;98441.66;;;14.94;100.00
49973;BME280;35865;49.798;10.968;2022-08-24T01:43:42;98441.38;;;14.96;100.00
49973;BME280;35865;49.798;10.968;2022-08-24T01:46:08;98433.09;;;14.92;100.00
49973;BME280;35865;49.798;10.968;2022-08-24T01:48:35;98455.56;;;14.91;100.00
49973;BME280;35865;49.798;10.968;2022-08-24T01:51:02;98442.72;;;14.88;100.00
49973;BME280;35865;49.798;10.968;2022-08-24T01:53:29;98447.00;;;14.84;100.00
49973;BME280;35865;49.798;10.968;2022-08-24T01:55:57;98449.16;;;14.82;100.00
49973;BME280;35865;49.798;10.968;2022-08-24T01:58:24;98440.34;;;14.76;100.00
49973;BME280;35865;49.798;10.968;2022-08-24T02:00:50;98441.13;;;14.71;100.00
49973;BME280;35865;49.798;10.968;2022-08-24T02:03:17;98446.47;;;14.61;100.00
49973;BME280;35865;49.798;10.968;2022-08-24T02:05:44;98446.19;;;14.52;100.00
49973;BME280;35865;49.798;10.968;2022-08-24T02:08:11;98446.19;;;14.52;100.00
49973;BME280;35865;49.798;10.968;2022-08-24T02:10:37;98444.88;;;14.50;100.00
49973;BME280;35865;49.798;10.968;2022-08-24T02:13:05;98440.56;;;14.44;100.00
49973;BME280;35865;49.798;10.968;2022-08-24T02:15:34;98449.38;;;14.44;100.00
49973;BME280;35865;49.798;10.968;2022-08-24T02:18:02;98446.97;;;14.43;100.00
49973;BME280;35865;49.798;10.968;2022-08-24T02:20:29;98442.16;;;14.34;100.00
49973;BME280;35865;49.798;10.968;2022-08-24T02:22:56;98440.03;;;14.36;100.00
49973;BME280;35865;49.798;10.968;2022-08-24T02:25:23;98438.41;;;14.30;100.00
49973;BME280;35865;49.798;10.968;2022-08-24T02:27:49;98442.16;;;14.29;100.00
49973;BME280;35865;49.798;10.968;2022-08-24T02:30:18;98440.56;;;14.28;100.00
49973;BME280;35865;49.798;10.968;2022-08-24T02:32:44;98444.81;;;14.24;100.00
49973;BME280;35865;49.798;10.968;2022-08-24T02:35:11;98446.44;;;14.25;100.00
49973;BME280;35865;49.798;10.968;2022-08-24T02:37:38;98444.28;;;14.17;100.00
49973;BME280;35865;49.798;10.968;2022-08-24T02:40:06;98445.88;;;14.13;100.00
49973;BME280;35865;49.798;10.968;2022-08-24T02:42:34;98453.31;;;14.11;100.00
49973;BME280;35865;49.798;10.968;2022-08-24T02:45:00;98449.59;;;14.12;100.00
49973;BME280;35865;49.798;10.968;2022-08-24T02:47:29;98451.72;;;14.10;100.00
49973;BME280;35865;49.798;10.968;2022-08-24T02:49:55;98452.78;;;14.03;100.00
49973;BME280;35865;49.798;10.968;2022-08-24T02:52:22;98446.09;;;14.01;100.00
49973;BME280;35865;49.798;10.968;2022-08-24T02:54:49;98453.31;;;14.00;100.00
49973;BME280;35865;49.798;10.968;2022-08-24T02:57:15;98453.31;;;14.00;100.00
49973;BME280;35865;49.798;10.968;2022-08-24T02:59:42;98451.16;;;14.02;100.00
49973;BME280;35865;49.798;10.968;2022-08-24T03:02:08;98456.75;;;14.01;100.00
49973;BME280;35865;49.798;10.968;2022-08-24T03:04:36;98458.09;;;14.03;100.00
49973;BME280;35865;49.798;10.968;2022-08-24T03:07:03;98462.94;;;14.12;100.00
49973;BME280;35865;49.798;10.968;2022-08-24T03:09:29;98453.31;;;14.11;100.00
49973;BME280;35865;49.798;10.968;2022-08-24T03:11:56;98453.59;;;14.19;100.00
49973;BME280;35865;49.798;10.968;2022-08-24T03:14:22;98450.94;;;14.25;100.00
49973;BME280;35865;49.798;10.968;2022-08-24T03:16:49;98458.69;;;14.31;100.00
49973;BME280;35865;49.798;10.968;2022-08-24T03:19:15;98453.09;;;14.23;100.00
49973;BME280;35865;49.798;10.968;2022-08-24T03:21:43;98453.59;;;14.14;100.00
49973;BME280;35865;49.798;10.968;2022-08-24T03:24:10;98454.66;;;14.13;100.00
49973;BME280;35865;49.798;10.968;2022-08-24T03:26:36;98455.19;;;14.15;100.00
49973;BME280;35865;49.798;10.968;2022-08-24T03:29:03;98450.69;;;14.16;100.00
49973;BME280;35865;49.798;10.968;2022-08-24T03:31:30;98448.28;;;14.14;100.00
49973;BME280;35865;49.798;10.968;2022-08-24T03:33:56;98454.38;;;14.10;100.00
49973;BME280;35865;49.798;10.968;2022-08-24T03:36:22;98451.13;;;13.97;100.00
49973;BME280;35865;49.798;10.968;2022-08-24T03:38:50;98450.56;;;13.90;100.00
49973;BME280;35865;49.798;10.968;2022-08-24T03:41:17;98449.47;;;13.86;100.00
49973;BME280;35865;49.798;10.968;2022-08-24T03:43:43;98448.66;;;13.80;100.00
49973;BME280;35865;49.798;10.968;2022-08-24T03:46:15;98445.69;;;13.72;100.00
49973;BME280;35865;49.798;10.968;2022-08-24T03:48:42;98448.59;;;13.65;100.00
49973;BME280;35865;49.798;10.968;2022-08-24T03:51:10;98455.75;;;13.59;100.00
49973;BME280;35865;49.798;10.968;2022-08-24T03:53:38;98461.06;;;13.54;100.00
49973;BME280;35865;49.798;10.968;2022-08-24T03:56:06;98462.66;;;13.50;100.00
49973;BME280;35865;49.798;10.968;2022-08-24T03:58:34;98463.97;;;13.47;100.00
49973;BME280;35865;49.798;10.968;2022-08-24T04:01:01;98469.56;;;13.46;100.00
49973;BME280;35865;49.798;10.968;2022-08-24T04:03:28;98456.16;;;13.35;100.00
49973;BME280;35865;49.798;10.968;2022-08-24T04:05:54;98463.63;;;13.33;100.00
49973;BME280;35865;49.798;10.968;2022-08-24T04:08:21;98470.31;;;13.41;100.00
49973;BME280;35865;49.798;10.968;2022-08-24T04:10:47;98477.03;;;13.49;100.00
49973;BME280;35865;49.798;10.968;2022-08-24T04:13:15;98467.97;;;13.50;100.00
49973;BME280;35865;49.798;10.968;2022-08-24T04:15:41;98473.81;;;13.47;100.00
49973;BME280;35865;49.798;10.968;2022-08-24T04:18:08;98475.41;;;13.48;100.00
49973;BME280;35865;49.798;10.968;2022-08-24T04:20:39;98478.66;;;13.50;100.00
49973;BME280;35865;49.798;10.968;2022-08-24T04:23:05;98480.22;;;13.51;100.00
49973;BME280;35865;49.798;10.968;2022-08-24T04:25:38;98485.31;;;13.52;100.00
49973;BME280;35865;49.798;10.968;2022-08-24T04:28:05;98488.25;;;13.56;100.00
49973;BME280;35865;49.798;10.968;2022-08-24T04:30:33;98488.00;;;13.58;100.00
49973;BME280;35865;49.798;10.968;2022-08-24T04:33:00;98480.00;;;13.58;100.00
49973;BME280;35865;49.798;10.968;2022-08-24T04:35:27;98484.84;;;13.61;100.00
49973;BME280;35865;49.798;10.968;2022-08-24T04:37:53;98488.03;;;13.63;100.00
49973;BME280;35865;49.798;10.968;2022-08-24T04:40:20;98490.44;;;13.64;100.00
49973;BME280;35865;49.798;10.968;2022-08-24T04:42:46;98488.31;;;13.72;100.00
49973;BME280;35865;49.798;10.968;2022-08-24T04:45:13;98494.78;;;13.81;100.00
49973;BME280;35865;49.798;10.968;2022-08-24T04:47:42;98496.16;;;13.89;100.00
49973;BME280;35865;49.798;10.968;2022-08-24T04:50:09;98497.00;;;13.94;100.00
49973;BME280;35865;49.798;10.968;2022-08-24T04:52:35;98505.56;;;14.01;100.00
49973;BME280;35865;49.798;10.968;2022-08-24T04:55:02;98502.38;;;14.10;100.00
49973;BME280;35865;49.798;10.968;2022-08-24T04:57:29;98494.16;;;14.16;100.00
49973;BME280;35865;49.798;10.968;2022-08-24T04:59:55;98489.66;;;14.27;100.00
49973;BME280;35865;49.798;10.968;2022-08-24T05:02:23;98494.44;;;14.30;100.00
49973;BME280;35865;49.798;10.968;2022-08-24T05:04:50;98491.53;;;14.37;100.00
49973;BME280;35865;49.798;10.968;2022-08-24T05:07:18;98499.28;;;14.44;100.00
49973;BME280;35865;49.798;10.968;2022-08-24T05:09:44;98497.44;;;14.49;100.00
49973;BME280;35865;49.798;10.968;2022-08-24T05:12:11;98505.19;;;14.56;100.00
49973;BME280;35865;49.798;10.968;2022-08-24T05:14:37;98512.69;;;14.64;100.00
49973;BME280;35865;49.798;10.968;2022-08-24T05:17:04;98512.16;;;14.78;100.00
49973;BME280;35865;49.798;10.968;2022-08-24T05:19:30;98513.75;;;14.89;100.00
49973;BME280;35865;49.798;10.968;2022-08-24T05:21:58;98513.75;;;15.04;100.00
49973;BME280;35865;49.798;10.968;2022-08-24T05:24:24;98511.63;;;15.27;100.00
49973;BME280;35865;49.798;10.968;2022-08-24T05:26:51;98513.22;;;15.54;100.00
49973;BME280;35865;49.798;10.968;2022-08-24T05:29:17;98513.13;;;15.90;100.00
49973;BME280;35865;49.798;10.968;2022-08-24T05:31:45;98510.59;;;16.19;100.00
49973;BME280;35865;49.798;10.968;2022-08-24T05:34:11;98519.50;;;16.54;100.00
49973;BME280;35865;49.798;10.968;2022-08-24T05:36:39;98511.81;;;16.87;100.00
49973;BME280;35865;49.798;10.968;2022-08-24T05:39:09;98515.31;;;17.22;100.00
49973;BME280;35865;49.798;10.968;2022-08-24T05:41:37;98514.38;;;17.62;100.00
49973;BME280;35865;49.798;10.968;2022-08-24T05:44:05;98517.50;;;17.98;100.00
49973;BME280;35865;49.798;10.968;2022-08-24T05:46:31;98512.47;;;18.16;100.00
49973;BME280;35865;49.798;10.968;2022-08-24T05:48:58;98512.41;;;18.59;100.00
49973;BME280;35865;49.798;10.968;2022-08-24T05:51:25;98504.75;;;19.04;100.00
49973;BME280;35865;49.798;10.968;2022-08-24T05:53:52;98507.06;;;19.86;99.39
49973;BME280;35865;49.798;10.968;2022-08-24T05:56:20;98503.09;;;20.11;94.26
49973;BME280;35865;49.798;10.968;2022-08-24T05:58:47;98497.56;;;20.67;89.78
49973;BME280;35865;49.798;10.968;2022-08-24T06:01:16;98493.06;;;20.39;87.62
49973;BME280;35865;49.798;10.968;2022-08-24T06:03:43;98492.28;;;20.25;87.18
49973;BME280;35865;49.798;10.968;2022-08-24T06:06:10;98498.69;;;20.88;85.47
49973;BME280;35865;49.798;10.968;2022-08-24T06:08:40;98500.34;;;21.52;83.16
49973;BME280;35865;49.798;10.968;2022-08-24T06:11:06;98502.59;;;21.59;80.62
49973;BME280;35865;49.798;10.968;2022-08-24T06:13:34;98503.00;;;22.59;78.73
49973;BME280;35865;49.798;10.968;2022-08-24T06:16:03;98493.13;;;22.37;76.65
49973;BME280;35865;49.798;10.968;2022-08-24T06:18:30;98507.16;;;22.82;75.72
49973;BME280;35865;49.798;10.968;2022-08-24T06:20:57;98489.03;;;23.48;73.08
49973;BME280;35865;49.798;10.968;2022-08-24T06:23:23;98498.66;;;23.75;72.21
49973;BME280;35865;49.798;10.968;2022-08-24T06:25:50;98493.63;;;24.46;69.89
49973;BME280;35865;49.798;10.968;2022-08-24T06:28:35;98476.22;;;24.26;69.19
49973;BME280;35865;49.798;10.968;2022-08-24T06:31:02;98480.19;;;24.28;68.37
49973;BME280;35865;49.798;10.968;2022-08-24T06:33:29;98481.34;;;24.48;67.54
49973;BME280;35865;49.798;10.968;2022-08-24T06:35:55;98480.25;;;24.20;68.09
49973;BME280;35865;49.798;10.968;2022-08-24T06:38:22;98487.16;;;24.59;66.67
49973;BME280;35865;49.798;10.968;2022-08-24T06:40:48;98483.94;;;25.45;65.22
49973;BME280;35865;49.798;10.968;2022-08-24T06:43:15;98480.81;;;25.93;62.04
49973;BME280;35865;49.798;10.968;2022-08-24T06:45:43;98480.16;;;26.36;60.73
49973;BME280;35865;49.798;10.968;2022-08-24T06:48:10;98481.13;;;27.13;58.19
49973;BME280;35865;49.798;10.968;2022-08-24T06:50:38;98480.94;;;27.50;56.92
49973;BME280;35865;49.798;10.968;2022-08-24T06:53:04;98480.25;;;28.05;55.90
49973;BME280;35865;49.798;10.968;2022-08-24T06:55:31;98477.31;;;27.02;55.89
49973;BME280;35865;49.798;10.968;2022-08-24T06:57:58;98494.06;;;27.96;56.22
49973;BME280;35865;49.798;10.968;2022-08-24T07:00:26;98492.91;;;27.17;56.34
49973;BME280;35865;49.798;10.968;2022-08-24T07:02:56;98487.25;;;26.66;58.03
49973;BME280;35865;49.798;10.968;2022-08-24T07:05:22;98496.00;;;27.32;57.28
49973;BME280;35865;49.798;10.968;2022-08-24T07:07:48;98489.16;;;27.54;55.28
49973;BME280;35865;49.798;10.968;2022-08-24T07:10:15;98485.31;;;28.23;55.05
49973;BME280;35865;49.798;10.968;2022-08-24T07:12:47;98497.47;;;28.45;54.22
49973;BME280;35865;49.798;10.968;2022-08-24T07:15:13;98490.38;;;27.41;55.68
49973;BME280;35865;49.798;10.968;2022-08-24T07:17:40;98496.81;;;27.48;56.20
49973;BME280;35865;49.798;10.968;2022-08-24T07:20:10;98498.06;;;28.74;54.27
49973;BME280;35865;49.798;10.968;2022-08-24T07:22:36;98488.41;;;28.99;52.25
49973;BME280;35865;49.798;10.968;2022-08-24T07:25:04;98493.47;;;29.40;51.53
49973;BME280;35865;49.798;10.968;2022-08-24T07:27:32;98492.03;;;29.73;50.65
49973;BME280;35865;49.798;10.968;2022-08-24T07:29:58;98494.50;;;30.05;50.38
49973;BME280;35865;49.798;10.968;2022-08-24T07:32:25;98503.50;;;30.05;50.75
49973;BME280;35865;49.798;10.968;2022-08-24T07:34:53;98489.56;;;29.64;50.54
49973;BME280;35865;49.798;10.968;2022-08-24T07:37:20;98486.03;;;29.41;50.93
49973;BME280;35865;49.798;10.968;2022-08-24T07:39:47;98488.75;;;29.64;51.16
49973;BME280;35865;49.798;10.968;2022-08-24T07:42:13;98492.38;;;29.95;50.89
49973;BME280;35865;49.798;10.968;2022-08-24T07:44:40;98490.84;;;30.54;49.29
49973;BME280;35865;49.798;10.968;2022-08-24T07:47:07;98487.09;;;30.66;48.55
49973;BME280;35865;49.798;10.968;2022-08-24T07:49:34;98489.03;;;30.35;49.26
49973;BME280;35865;49.798;10.968;2022-08-24T07:52:00;98491.19;;;30.49;49.76
49973;BME280;35865;49.798;10.968;2022-08-24T07:54:28;98478.50;;;30.68;47.86
49973;BME280;35865;49.798;10.968;2022-08-24T07:56:54;98490.19;;;31.33;47.26
49973;BME280;35865;49.798;10.968;2022-08-24T07:59:21;98491.72;;;31.30;46.81
49973;BME280;35865;49.798;10.968;2022-08-24T08:01:47;98496.69;;;32.18;45.26
49973;BME280;35865;49.798;10.968;2022-08-24T08:04:14;98487.88;;;31.42;45.38
49973;BME280;35865;49.798;10.968;2022-08-24T08:06:46;98506.38;;;32.01;45.44
49973;BME280;35865;49.798;10.968;2022-08-24T08:09:12;98498.34;;;31.74;45.61
49973;BME280;35865;49.798;10.968;2022-08-24T08:11:40;98500.72;;;31.31;45.95
49973;BME280;35865;49.798;10.968;2022-08-24T08:14:06;98507.88;;;30.71;46.88
49973;BME280;35865;49.798;10.968;2022-08-24T08:16:33;98505.31;;;31.68;45.53
49973;BME280;35865;49.798;10.968;2022-08-24T08:18:59;98511.69;;;32.42;44.60
49973;BME280;35865;49.798;10.968;2022-08-24T08:21:25;98499.25;;;31.92;44.66
49973;BME280;35865;49.798;10.968;2022-08-24T08:24:10;98490.78;;;32.16;43.34
49973;BME280;35865;49.798;10.968;2022-08-24T08:26:46;98488.66;;;32.57;41.56
49973;BME280;35865;49.798;10.968;2022-08-24T08:29:13;98490.22;;;31.85;41.96
49973;BME280;35865;49.798;10.968;2022-08-24T08:31:40;98487.00;;;31.79;42.55
49973;BME280;35865;49.798;10.968;2022-08-24T08:34:07;98488.66;;;31.39;43.55
49973;BME280;35865;49.798;10.968;2022-08-24T08:36:34;98480.56;;;32.09;41.96
49973;BME280;35865;49.798;10.968;2022-08-24T08:39:04;98477.00;;;31.49;44.02
49973;BME280;35865;49.798;10.968;2022-08-24T08:42:01;98469.94;;;31.52;43.87
49973;BME280;35865;49.798;10.968;2022-08-24T08:44:49;98479.06;;;30.50;46.12
49973;BME280;35865;49.798;10.968;2022-08-24T08:47:31;98483.16;;;30.98;45.25
49973;BME280;35865;49.798;10.968;2022-08-24T08:50:13;98472.53;;;31.30;44.02
49973;BME280;35865;49.798;10.968;2022-08-24T08:53:00;98484.13;;;31.16;45.54
49973;BME280;35865;49.798;10.968;2022-08-24T08:55:36;98488.59;;;31.35;45.00
49973;BME280;35865;49.798;10.968;2022-08-24T08:58:30;98489.19;;;32.11;43.75
49973;BME280;35865;49.798;10.968;2022-08-24T09:01:07;98469.50;;;31.95;43.12
49973;BME280;35865;49.798;10.968;2022-08-24T09:03:49;98467.47;;;31.36;43.91
49973;BME280;35865;49.798;10.968;2022-08-24T09:06:49;98475.31;;;32.56;42.42
49973;BME280;35865;49.798;10.968;2022-08-24T09:09:40;98477.06;;;33.58;41.06
49973;BME280;35865;49.798;10.968;2022-08-24T09:12:17;98464.50;;;33.10;40.83
49973;BME280;35865;49.798;10.968;2022-08-24T09:15:09;98468.03;;;33.79;39.64
49973;BME280;35865;49.798;10.968;2022-08-24T09:17:59;98466.72;;;32.68;40.65
49973;BME280;35865;49.798;10.968;2022-08-24T09:20:49;98460.56;;;33.11;39.53
49973;BME280;35865;49.798;10.968;2022-08-24T09:23:25;98462.16;;;33.70;39.44
49973;BME280;35865;49.798;10.968;2022-08-24T09:25:59;98462.53;;;33.21;39.14
49973;BME280;35865;49.798;10.968;2022-08-24T09:28:34;98448.00;;;33.28;38.74
49973;BME280;35865;49.798;10.968;2022-08-24T09:31:27;98449.06;;;32.66;39.34
49973;BME280;35865;49.798;10.968;2022-08-24T09:34:07;98452.56;;;32.63;39.54
49973;BME280;35865;49.798;10.968;2022-08-24T09:36:44;98440.47;;;31.86;39.11
49973;BME280;35865;49.798;10.968;2022-08-24T09:42:24;98449.41;;;31.28;41.46
49973;BME280;35865;49.798;10.968;2022-08-24T09:45:09;98451.84;;;32.73;39.10
49973;BME280;35865;49.798;10.968;2022-08-24T09:47:55;98453.09;;;33.80;37.77
49973;BME280;35865;49.798;10.968;2022-08-24T09:50:48;98439.75;;;33.10;38.44
49973;BME280;35865;49.798;10.968;2022-08-24T09:53:46;98449.81;;;32.63;38.70
49973;BME280;35865;49.798;10.968;2022-08-24T09:56:39;98427.16;;;32.95;37.33
49973;BME280;35865;49.798;10.968;2022-08-24T09:59:27;98439.63;;;32.67;38.65
49973;BME280;35865;49.798;10.968;2022-08-24T10:02:16;98445.31;;;32.18;40.23
49973;BME280;35865;49.798;10.968;2022-08-24T10:04:56;98441.22;;;32.61;39.28
49973;BME280;35865;49.798;10.968;2022-08-24T10:07:35;98443.06;;;32.42;40.12
49973;BME280;35865;49.798;10.968;2022-08-24T10:10:15;98433.03;;;32.97;39.52
49973;BME280;35865;49.798;10.968;2022-08-24T10:12:54;98429.94;;;33.38;37.93
49973;BME280;35865;49.798;10.968;2022-08-24T10:15:28;98429.03;;;34.28;36.63
49973;BME280;35865;49.798;10.968;2022-08-24T10:18:15;98424.59;;;34.44;36.70
49973;BME280;35865;49.798;10.968;2022-08-24T10:20:58;98424.47;;;33.63;36.89
49973;BME280;35865;49.798;10.968;2022-08-24T10:23:37;98427.13;;;33.96;36.55
49973;BME280;35865;49.798;10.968;2022-08-24T10:26:13;98423.56;;;34.06;36.96
49973;BME280;35865;49.798;10.968;2022-08-24T10:29:00;98421.19;;;34.15;36.91
49973;BME280;35865;49.798;10.968;2022-08-24T10:31:37;98414.81;;;34.33;36.09
49973;BME280;35865;49.798;10.968;2022-08-24T10:34:15;98411.44;;;33.82;36.58
49973;BME280;35865;49.798;10.968;2022-08-24T10:37:08;98421.50;;;34.39;36.46
49973;BME280;35865;49.798;10.968;2022-08-24T10:39:52;98424.31;;;34.99;36.12
49973;BME280;35865;49.798;10.968;2022-08-24T10:42:37;98413.72;;;34.93;35.58
49973;BME280;35865;49.798;10.968;2022-08-24T10:45:46;98412.25;;;33.82;37.58
49973;BME280;35865;49.798;10.968;2022-08-24T10:48:38;98397.72;;;33.42;37.91
49973;BME280;35865;49.798;10.968;2022-08-24T10:51:24;98411.81;;;33.91;37.89
49973;BME280;35865;49.798;10.968;2022-08-24T10:53:55;98413.06;;;33.07;39.13
49973;BME280;35865;49.798;10.968;2022-08-24T10:56:29;98396.50;;;32.89;38.58
49973;BME280;35865;49.798;10.968;2022-08-24T10:59:02;98407.16;;;33.37;38.44
49973;BME280;35865;49.798;10.968;2022-08-24T11:01:35;98409.53;;;33.61;38.28
49973;BME280;35865;49.798;10.968;2022-08-24T11:04:06;98396.50;;;32.71;39.02
49973;BME280;35865;49.798;10.968;2022-08-24T11:06:35;98411.78;;;32.61;40.05
49973;BME280;35865;49.798;10.968;2022-08-24T11:09:07;98397.03;;;31.40;41.07
49973;BME280;35865;49.798;10.968;2022-08-24T11:11:36;98402.13;;;30.97;41.90
49973;BME280;35865;49.798;10.968;2022-08-24T11:14:05;98408.16;;;30.38;43.17
49973;BME280;35865;49.798;10.968;2022-08-24T11:16:35;98422.28;;;31.19;43.27
49973;BME280;35865;49.798;10.968;2022-08-24T11:19:07;98407.41;;;31.68;41.91
49973;BME280;35865;49.798;10.968;2022-08-24T11:21:53;98410.19;;;32.53;40.82
49973;BME280;35865;49.798;10.968;2022-08-24T11:24:30;98417.38;;;33.26;39.09
49973;BME280;35865;49.798;10.968;2022-08-24T11:27:06;98407.53;;;33.68;38.08
49973;BME280;35865;49.798;10.968;2022-08-24T11:29:59;98405.53;;;33.90;37.49
49973;BME280;35865;49.798;10.968;2022-08-24T11:32:28;98412.22;;;34.82;36.76
49973;BME280;35865;49.798;10.968;2022-08-24T11:35:00;98385.34;;;34.26;36.39
49973;BME280;35865;49.798;10.968;2022-08-24T11:37:31;98407.13;;;35.74;35.50
49973;BME280;35865;49.798;10.968;2022-08-24T11:39:59;98388.84;;;35.04;36.06
49973;BME280;35865;49.798;10.968;2022-08-24T11:42:34;98400.56;;;35.57;35.46
49973;BME280;35865;49.798;10.968;2022-08-24T11:45:07;98388.88;;;35.46;34.69
49973;BME280;35865;49.798;10.968;2022-08-24T11:47:54;98389.81;;;34.76;36.12
49973;BME280;35865;49.798;10.968;2022-08-24T11:50:30;98398.22;;;34.47;36.77
49973;BME280;35865;49.798;10.968;2022-08-24T11:53:21;98380.38;;;33.88;37.21
49973;BME280;35865;49.798;10.968;2022-08-24T11:55:59;98385.03;;;34.06;36.83
49973;BME280;35865;49.798;10.968;2022-08-24T11:58:37;98380.47;;;33.31;38.23
49973;BME280;35865;49.798;10.968;2022-08-24T12:01:12;98389.88;;;33.30;39.22
49973;BME280;35865;49.798;10.968;2022-08-24T12:03:45;98391.44;;;33.70;37.95
49973;BME280;35865;49.798;10.968;2022-08-24T12:06:25;98387.94;;;33.59;37.45
49973;BME280;35865;49.798;10.968;2022-08-24T12:08:56;98390.66;;;33.12;38.02
49973;BME280;35865;49.798;10.968;2022-08-24T12:11:37;98378.09;;;33.04;37.40
49973;BME280;35865;49.798;10.968;2022-08-24T12:14:13;98373.38;;;32.86;37.65
49973;BME280;35865;49.798;10.968;2022-08-24T12:16:48;98376.69;;;32.15;38.60
49973;BME280;35865;49.798;10.968;2022-08-24T12:19:20;98375.13;;;31.40;39.94
49973;BME280;35865;49.798;10.968;2022-08-24T12:21:52;98382.88;;;31.31;40.15
49973;BME280;35865;49.798;10.968;2022-08-24T12:24:30;98387.59;;;31.34;41.25
49973;BME280;35865;49.798;10.968;2022-08-24T12:27:02;98386.50;;;32.16;40.20
49973;BME280;35865;49.798;10.968;2022-08-24T12:29:34;98390.22;;;32.67;39.56
49973;BME280;35865;49.798;10.968;2022-08-24T12:32:05;98394.53;;;33.83;37.38
49973;BME280;35865;49.798;10.968;2022-08-24T12:34:44;98377.16;;;34.15;35.67
49973;BME280;35865;49.798;10.968;2022-08-24T12:37:14;98370.16;;;33.85;34.74
49973;BME280;35865;49.798;10.968;2022-08-24T12:39:46;98366.03;;;34.37;35.06
49973;BME280;35865;49.798;10.968;2022-08-24T12:42:21;98372.63;;;34.50;35.55
49973;BME280;35865;49.798;10.968;2022-08-24T12:44:52;98371.03;;;34.56;35.36
49973;BME280;35865;49.798;10.968;2022-08-24T12:47:23;98366.31;;;34.53;35.87
49973;BME280;35865;49.798;10.968;2022-08-24T12:49:53;98359.78;;;34.25;35.84
49973;BME280;35865;49.798;10.968;2022-08-24T12:52:53;98363.00;;;34.17;35.97
49973;BME280;35865;49.798;10.968;2022-08-24T12:55:42;98352.59;;;33.14;37.89
49973;BME280;35865;49.798;10.968;2022-08-24T13:01:10;98350.25;;;31.74;39.31
49973;BME280;35865;49.798;10.968;2022-08-24T13:03:41;98355.31;;;31.68;40.03
49973;BME280;35865;49.798;10.968;2022-08-24T13:06:16;98354.44;;;32.41;38.92
49973;BME280;35865;49.798;10.968;2022-08-24T13:08:46;98352.53;;;32.49;38.66
49973;BME280;35865;49.798;10.968;2022-08-24T13:11:27;98354.91;;;32.62;38.11
49973;BME280;35865;49.798;10.968;2022-08-24T13:14:13;98343.28;;;31.87;39.48